Orbital elements of FENGYUN 1C DEB
| Launched | 9 May 1999 |
| Flight ended | – |
| Launch site | Taiyuan Space Center, PRC |
| Owner | People's Republic of China |
| NORAD ID | 30628 |
| Date fetched |
Epoch osculation |
Inc. [°] |
Ecc. | RA asc node [hr] |
Arg Peri. [°] |
Mean anom [°] |
Mean motion [rev/day] |
Abs. mag |
| Date fetched |
Epoch osculation |
Inc. [°] |
Ecc. | RA asc node [hr] |
Arg Peri. [°] |
Mean anom [°] |
Mean motion [rev/day] |
Abs. mag |
| 2026 May 08 17:57 | 2026 May 05 09:00:17 | 99.3435 | 0.00212 | 4.4774 | 154.9431 | 205.2806 | 14.74031 | – |
| 2026 May 07 17:58 | 2026 May 05 09:00:17 | 99.3435 | 0.00212 | 4.4774 | 154.9431 | 205.2806 | 14.74031 | – |
| 2026 May 06 17:57 | 2026 May 05 09:00:17 | 99.3435 | 0.00212 | 4.4774 | 154.9431 | 205.2806 | 14.74031 | – |
| 2026 May 05 17:57 | 2026 May 05 09:00:17 | 99.3435 | 0.00212 | 4.4774 | 154.9431 | 205.2806 | 14.74031 | – |
| 2026 May 04 17:57 | 2026 Apr 30 08:26:28 | 99.3441 | 0.00204 | 4.0919 | 171.0499 | 205.2806 | 14.74031 | – |
| 2026 May 03 17:57 | 2026 Apr 30 08:26:28 | 99.3441 | 0.00204 | 4.0919 | 171.0499 | 205.2806 | 14.74031 | – |
| 2026 May 02 17:57 | 2026 Apr 30 08:26:28 | 99.3441 | 0.00204 | 4.0919 | 171.0499 | 205.2806 | 14.74031 | – |
| 2026 May 01 17:56 | 2026 Apr 30 08:26:28 | 99.3441 | 0.00204 | 4.0919 | 171.0499 | 205.2806 | 14.74031 | – |
| 2026 Apr 30 17:56 | 2026 Apr 30 08:26:28 | 99.3441 | 0.00204 | 4.0919 | 171.0499 | 205.2806 | 14.74031 | – |
| 2026 Apr 29 17:57 | 2026 Apr 24 07:25:17 | 99.3427 | 0.00197 | 3.6283 | 191.1352 | 205.2806 | 14.74031 | – |
| 2026 Apr 28 17:56 | 2026 Apr 24 07:25:17 | 99.3427 | 0.00197 | 3.6283 | 191.1352 | 205.2806 | 14.74031 | – |
| 2026 Apr 27 17:58 | 2026 Apr 24 07:25:17 | 99.3427 | 0.00197 | 3.6283 | 191.1352 | 205.2806 | 14.74031 | – |
| 2026 Apr 26 17:58 | 2026 Apr 24 07:25:17 | 99.3427 | 0.00197 | 3.6283 | 191.1352 | 205.2806 | 14.74031 | – |
| 2026 Apr 25 17:58 | 2026 Apr 24 07:25:17 | 99.3427 | 0.00197 | 3.6283 | 191.1352 | 205.2806 | 14.74031 | – |
| 2026 Apr 24 17:59 | 2026 Apr 24 07:25:17 | 99.3427 | 0.00197 | 3.6283 | 191.1352 | 205.2806 | 14.74031 | – |
| 2026 Apr 23 17:57 | 2026 Apr 19 06:49:52 | 99.3439 | 0.00193 | 3.2430 | 208.4041 | 205.2806 | 14.74031 | – |
| 2026 Apr 22 17:57 | 2026 Apr 19 06:49:52 | 99.3439 | 0.00193 | 3.2430 | 208.4041 | 205.2806 | 14.74031 | – |
| 2026 Apr 21 17:57 | 2026 Apr 19 06:49:52 | 99.3439 | 0.00193 | 3.2430 | 208.4041 | 205.2806 | 14.74031 | – |
| 2026 Apr 20 17:57 | 2026 Apr 19 06:49:52 | 99.3439 | 0.00193 | 3.2430 | 208.4041 | 205.2806 | 14.74031 | – |
| 2026 Apr 19 17:58 | 2026 Apr 19 06:49:52 | 99.3439 | 0.00193 | 3.2430 | 208.4041 | 205.2806 | 14.74031 | – |
| 2026 Apr 18 17:56 | 2026 Apr 12 13:29:17 | 99.3422 | 0.00192 | 2.7274 | 231.9029 | 205.2806 | 14.74031 | – |
| 2026 Apr 16 17:57 | 2026 Apr 12 13:29:17 | 99.3422 | 0.00192 | 2.7274 | 231.9029 | 205.2806 | 14.74031 | – |
| 2026 Apr 14 17:57 | 2026 Apr 12 13:29:17 | 99.3422 | 0.00192 | 2.7274 | 231.9029 | 205.2806 | 14.74031 | – |
| 2026 Apr 13 17:57 | 2026 Apr 12 13:29:17 | 99.3422 | 0.00192 | 2.7274 | 231.9029 | 205.2806 | 14.74031 | – |
| 2026 Apr 12 17:57 | 2026 Apr 08 06:48:30 | 99.3423 | 0.00194 | 2.3994 | 246.7301 | 205.2806 | 14.74031 | – |
| 2026 Apr 11 17:57 | 2026 Apr 08 06:48:30 | 99.3423 | 0.00194 | 2.3994 | 246.7301 | 205.2806 | 14.74031 | – |